createdAt,value
2022-10-04T00:01:08.001Z,100.00
2022-10-04T00:03:43.700Z,100.00
2022-10-04T00:06:18.752Z,100.00
2022-10-04T00:08:52.148Z,100.00
2022-10-04T00:11:26.619Z,100.00
2022-10-04T00:13:59.398Z,100.00
2022-10-04T00:16:31.242Z,100.00
2022-10-04T00:19:26.340Z,100.00
2022-10-04T00:22:24.250Z,100.00
2022-10-04T00:25:20.290Z,100.00
2022-10-04T00:28:29.806Z,100.00
2022-10-04T00:31:24.490Z,100.00
2022-10-04T00:33:55.520Z,100.00
2022-10-04T00:36:39.038Z,100.00
2022-10-04T00:39:25.201Z,100.00
2022-10-04T00:42:03.544Z,100.00
2022-10-04T00:44:39.862Z,100.00
2022-10-04T00:47:21.607Z,100.00
2022-10-04T00:49:56.127Z,100.00
2022-10-04T00:52:30.524Z,100.00
2022-10-04T00:55:02.987Z,100.00
2022-10-04T00:57:35.752Z,100.00
2022-10-04T01:00:07.248Z,100.00
2022-10-04T01:02:47.382Z,100.00
2022-10-04T01:05:19.575Z,100.00
2022-10-04T01:07:54.436Z,100.00
2022-10-04T01:10:26.331Z,100.00
2022-10-04T01:13:02.434Z,100.00
2022-10-04T01:15:37.757Z,100.00
2022-10-04T01:18:12.004Z,100.00
2022-10-04T01:20:49.583Z,100.00
2022-10-04T01:23:39.248Z,100.00
2022-10-04T01:26:29.207Z,100.00
2022-10-04T01:28:59.238Z,100.00
2022-10-04T01:31:28.082Z,100.00
2022-10-04T01:33:57.262Z,100.00
2022-10-04T01:36:27.098Z,100.00
2022-10-04T01:38:57.316Z,100.00
2022-10-04T01:41:32.647Z,100.00
2022-10-04T01:44:04.559Z,100.00
2022-10-04T01:46:36.377Z,100.00
2022-10-04T01:49:17.761Z,100.00
2022-10-04T01:51:54.477Z,100.00
2022-10-04T01:54:32.580Z,100.00
2022-10-04T01:57:06.816Z,100.00
2022-10-04T01:59:42.475Z,100.00
2022-10-04T02:02:18.757Z,100.00
2022-10-04T02:04:53.736Z,100.00
2022-10-04T02:07:22.970Z,100.00
2022-10-04T02:09:59.556Z,100.00
2022-10-04T02:12:31.494Z,100.00
2022-10-04T02:15:02.394Z,100.00
2022-10-04T02:17:33.208Z,100.00
2022-10-04T02:20:02.661Z,100.00
2022-10-04T02:22:31.662Z,100.00
2022-10-04T02:25:01.938Z,100.00
2022-10-04T02:27:31.672Z,100.00
2022-10-04T02:30:04.550Z,100.00
2022-10-04T02:32:51.363Z,100.00
2022-10-04T02:35:21.344Z,100.00
2022-10-04T02:37:54.888Z,100.00
2022-10-04T02:40:30.946Z,100.00
2022-10-04T02:43:04.106Z,100.00
2022-10-04T02:45:42.793Z,100.00
2022-10-04T02:48:31.270Z,100.00
2022-10-04T02:51:07.868Z,100.00
2022-10-04T02:53:47.625Z,100.00
2022-10-04T02:56:19.617Z,100.00
2022-10-04T02:58:48.034Z,100.00
2022-10-04T03:01:25.659Z,100.00
2022-10-04T03:03:56.189Z,100.00
2022-10-04T03:06:29.529Z,100.00
2022-10-04T03:09:02.100Z,100.00
2022-10-04T03:11:35.916Z,100.00
2022-10-04T03:14:07.281Z,100.00
2022-10-04T03:16:37.898Z,100.00
2022-10-04T03:19:08.194Z,100.00
2022-10-04T03:21:38.191Z,100.00
2022-10-04T03:24:07.791Z,100.00
2022-10-04T03:26:42.102Z,100.00
2022-10-04T03:29:12.230Z,100.00
2022-10-04T03:31:42.819Z,100.00
2022-10-04T03:34:16.428Z,100.00
2022-10-04T03:36:45.435Z,100.00
2022-10-04T03:39:19.438Z,100.00
2022-10-04T03:41:49.327Z,100.00
2022-10-04T03:44:19.686Z,100.00
2022-10-04T03:46:48.797Z,100.00
2022-10-04T03:49:24.939Z,100.00
2022-10-04T03:51:53.966Z,100.00
2022-10-04T03:54:27.966Z,100.00
2022-10-04T03:56:58.215Z,100.00
2022-10-04T03:59:29.239Z,100.00
2022-10-04T04:02:11.235Z,100.00
2022-10-04T04:04:50.480Z,100.00
2022-10-04T04:07:25.740Z,100.00
2022-10-04T04:10:00.345Z,100.00
2022-10-04T04:12:40.079Z,100.00
2022-10-04T04:15:11.728Z,100.00
2022-10-04T04:17:42.080Z,100.00
2022-10-04T04:20:24.687Z,100.00
2022-10-04T04:23:00.269Z,100.00
2022-10-04T04:25:32.107Z,100.00
2022-10-04T04:28:08.836Z,100.00
2022-10-04T04:30:39.804Z,100.00
2022-10-04T04:33:11.030Z,100.00
2022-10-04T04:35:39.203Z,100.00
2022-10-04T04:38:18.390Z,100.00
2022-10-04T04:40:47.286Z,100.00
2022-10-04T04:43:20.308Z,100.00
2022-10-04T04:46:08.460Z,100.00
2022-10-04T04:48:38.876Z,100.00
2022-10-04T04:51:07.201Z,100.00
2022-10-04T04:53:36.007Z,100.00
2022-10-04T04:56:10.372Z,100.00
2022-10-04T04:58:45.917Z,100.00
2022-10-04T05:01:22.703Z,100.00
2022-10-04T05:04:02.177Z,100.00
2022-10-04T05:06:32.095Z,100.00
2022-10-04T05:09:00.245Z,100.00
2022-10-04T05:11:31.181Z,100.00
2022-10-04T05:14:05.928Z,100.00
2022-10-04T05:16:39.225Z,100.00
2022-10-04T05:19:10.813Z,100.00
2022-10-04T05:21:42.711Z,100.00
2022-10-04T05:24:14.795Z,100.00
2022-10-04T05:26:43.954Z,100.00
2022-10-04T05:29:18.922Z,100.00
2022-10-04T05:31:54.473Z,100.00
2022-10-04T05:34:25.392Z,100.00
2022-10-04T05:37:07.554Z,100.00
2022-10-04T05:39:44.069Z,100.00
2022-10-04T05:42:18.958Z,100.00
2022-10-04T05:44:52.904Z,100.00
2022-10-04T05:47:24.215Z,100.00
2022-10-04T05:49:55.575Z,100.00
2022-10-04T05:52:30.617Z,100.00
2022-10-04T05:55:37.618Z,100.00
2022-10-04T05:58:28.385Z,100.00
2022-10-04T06:01:20.688Z,100.00
2022-10-04T06:04:13.201Z,100.00
2022-10-04T06:06:50.028Z,100.00
2022-10-04T06:09:41.403Z,100.00
2022-10-04T06:12:14.595Z,100.00
2022-10-04T06:14:58.545Z,100.00
2022-10-04T06:17:48.815Z,100.00
2022-10-04T06:20:44.565Z,100.00
2022-10-04T06:23:16.909Z,100.00
2022-10-04T06:25:48.817Z,100.00
2022-10-04T06:28:24.020Z,100.00
2022-10-04T06:31:19.690Z,100.00
2022-10-04T06:34:06.759Z,100.00
2022-10-04T06:36:48.636Z,100.00
2022-10-04T06:39:41.101Z,100.00
2022-10-04T06:42:57.337Z,100.00
2022-10-04T06:46:03.780Z,100.00
2022-10-04T06:48:49.440Z,100.00
2022-10-04T06:51:32.202Z,100.00
2022-10-04T06:54:14.446Z,100.00
2022-10-04T06:57:08.461Z,100.00
2022-10-04T06:59:52.824Z,100.00
2022-10-04T07:02:27.635Z,100.00
2022-10-04T07:05:08.442Z,100.00
2022-10-04T07:07:42.133Z,100.00
2022-10-04T07:10:26.135Z,100.00
2022-10-04T07:13:12.600Z,100.00
2022-10-04T07:15:48.436Z,100.00
2022-10-04T07:18:24.128Z,100.00
2022-10-04T07:20:59.558Z,100.00
2022-10-04T07:23:33.415Z,100.00
2022-10-04T07:26:05.405Z,100.00
2022-10-04T07:28:58.131Z,100.00
2022-10-04T07:31:29.344Z,100.00
2022-10-04T07:34:01.513Z,100.00
2022-10-04T07:36:33.165Z,100.00
2022-10-04T07:39:12.361Z,100.00
2022-10-04T07:41:50.002Z,100.00
2022-10-04T07:44:27.545Z,100.00
2022-10-04T07:47:00.323Z,100.00
2022-10-04T07:49:28.660Z,100.00
2022-10-04T07:52:19.084Z,100.00
2022-10-04T07:54:55.504Z,100.00
2022-10-04T07:57:31.052Z,100.00
2022-10-04T08:00:07.270Z,100.00
2022-10-04T08:02:46.689Z,100.00
2022-10-04T08:05:23.356Z,100.00
2022-10-04T08:08:22.689Z,100.00
2022-10-04T08:11:03.313Z,100.00
2022-10-04T08:13:39.922Z,100.00
2022-10-04T08:16:23.756Z,100.00
2022-10-04T08:19:10.224Z,100.00
2022-10-04T08:21:48.217Z,100.00
2022-10-04T08:24:25.739Z,100.00
2022-10-04T08:27:06.988Z,100.00
2022-10-04T08:30:01.219Z,100.00
2022-10-04T08:32:51.076Z,97.77
2022-10-04T08:35:34.289Z,96.80
2022-10-04T08:38:16.857Z,96.05
2022-10-04T08:41:26.707Z,95.30
2022-10-04T08:44:49.286Z,97.37
2022-10-04T08:47:34.530Z,94.00
2022-10-04T08:50:53.637Z,94.01
2022-10-04T08:54:07.639Z,93.60
2022-10-04T08:56:58.290Z,93.60
2022-10-04T09:00:02.131Z,93.62
2022-10-04T09:02:57.951Z,92.20
2022-10-04T09:05:45.550Z,89.28
2022-10-04T09:08:55.601Z,90.19
2022-10-04T09:11:41.581Z,88.49
2022-10-04T09:14:30.697Z,89.47
2022-10-04T09:17:22.235Z,88.72
2022-10-04T09:20:14.066Z,92.45
2022-10-04T09:22:50.124Z,89.48
2022-10-04T09:25:49.837Z,91.56
2022-10-04T09:28:53.826Z,87.19
2022-10-04T09:31:44.290Z,86.81
2022-10-04T09:34:36.399Z,85.77
2022-10-04T09:37:42.124Z,85.59
2022-10-04T09:40:49.383Z,85.69
2022-10-04T09:43:57.541Z,85.88
2022-10-04T09:47:10.575Z,88.80
2022-10-04T09:50:13.974Z,86.83
2022-10-04T09:52:54.032Z,88.91
2022-10-04T09:55:50.204Z,88.06
2022-10-04T09:58:46.358Z,87.37
2022-10-04T10:01:23.588Z,87.51
2022-10-04T10:04:22.981Z,88.10
2022-10-04T10:07:15.593Z,87.08
2022-10-04T10:10:09.952Z,85.94
2022-10-04T10:13:34.207Z,86.94
2022-10-04T10:16:11.450Z,85.06
2022-10-04T10:18:56.127Z,85.80
2022-10-04T10:21:41.417Z,84.90
2022-10-04T10:24:33.668Z,86.34
2022-10-04T10:27:20.042Z,85.10
2022-10-04T10:30:07.327Z,85.07
2022-10-04T10:32:48.986Z,86.15
2022-10-04T10:35:42.321Z,85.54
2022-10-04T10:38:40.207Z,84.99
2022-10-04T10:41:34.097Z,82.41
2022-10-04T10:44:23.490Z,83.00
2022-10-04T10:47:05.703Z,83.30
2022-10-04T10:49:44.385Z,84.68
2022-10-04T10:52:45.597Z,82.73
2022-10-04T10:55:44.806Z,82.16
2022-10-04T10:58:41.948Z,83.81
2022-10-04T11:01:42.958Z,80.85
2022-10-04T11:04:38.265Z,82.12
2022-10-04T11:07:41.497Z,82.29
2022-10-04T11:10:50.002Z,83.61
2022-10-04T11:13:41.915Z,83.90
2022-10-04T11:16:50.969Z,85.54
2022-10-04T11:19:46.214Z,85.54
2022-10-04T11:22:44.378Z,84.61
2022-10-04T11:25:39.860Z,84.97
2022-10-04T11:28:16.966Z,85.36
2022-10-04T11:31:23.973Z,85.54
2022-10-04T11:34:16.599Z,85.87
2022-10-04T11:37:01.884Z,86.34
2022-10-04T11:39:58.689Z,85.61
2022-10-04T11:42:45.000Z,85.57
2022-10-04T11:45:34.103Z,85.45
2022-10-04T11:48:16.537Z,86.30
2022-10-04T11:51:18.482Z,84.76
2022-10-04T11:54:07.604Z,85.44
2022-10-04T11:56:48.458Z,83.70
2022-10-04T11:59:30.963Z,83.39
2022-10-04T12:02:45.639Z,83.13
2022-10-04T12:05:50.901Z,84.26
2022-10-04T12:08:28.086Z,83.38
2022-10-04T12:11:52.575Z,83.68
2022-10-04T12:14:32.626Z,83.60
2022-10-04T12:17:40.163Z,84.27
2022-10-04T12:20:45.417Z,83.67
2022-10-04T12:23:39.644Z,83.78
2022-10-04T12:26:32.856Z,84.50
2022-10-04T12:29:38.001Z,84.85
2022-10-04T12:32:11.653Z,85.74
2022-10-04T12:34:56.964Z,85.55
2022-10-04T12:37:34.351Z,85.25
2022-10-04T12:40:22.534Z,86.63
2022-10-04T12:42:59.806Z,86.58
2022-10-04T12:45:40.412Z,86.21
2022-10-04T12:48:28.239Z,85.88
2022-10-04T12:51:05.751Z,86.13
2022-10-04T12:53:48.180Z,85.38
2022-10-04T12:56:32.103Z,86.02
2022-10-04T12:59:17.090Z,85.88
2022-10-04T13:01:57.032Z,86.01
2022-10-04T13:04:32.907Z,87.41
2022-10-04T13:07:23.460Z,86.59
2022-10-04T13:10:23.580Z,86.94
2022-10-04T13:13:31.122Z,87.30
2022-10-04T13:19:09.588Z,87.79
2022-10-04T13:22:37.625Z,88.58
2022-10-04T13:25:20.146Z,88.71
2022-10-04T13:27:50.199Z,89.46
2022-10-04T13:30:24.514Z,89.24
2022-10-04T13:33:00.041Z,90.58
2022-10-04T13:35:36.650Z,89.92
2022-10-04T13:38:36.945Z,91.92
2022-10-04T13:41:19.100Z,93.60
2022-10-04T13:44:02.672Z,94.96
2022-10-04T13:46:44.077Z,97.14
2022-10-04T13:49:27.782Z,97.88
2022-10-04T13:52:41.641Z,96.84
2022-10-04T13:55:41.650Z,95.69
2022-10-04T13:58:24.383Z,96.51
2022-10-04T14:01:22.118Z,95.52
2022-10-04T14:04:09.338Z,95.97
2022-10-04T14:06:54.250Z,95.69
2022-10-04T14:09:46.947Z,95.55
2022-10-04T14:13:06.154Z,96.13
2022-10-04T14:15:59.673Z,96.83
2022-10-04T14:18:55.695Z,96.55
2022-10-04T14:21:54.375Z,97.25
2022-10-04T14:25:11.482Z,96.80
2022-10-04T14:27:59.519Z,96.54
2022-10-04T14:30:37.875Z,96.63
2022-10-04T14:33:35.244Z,96.42
2022-10-04T14:36:44.586Z,97.34
2022-10-04T14:39:37.637Z,97.96
2022-10-04T14:42:19.577Z,96.38
2022-10-04T14:45:11.757Z,96.10
2022-10-04T14:48:07.288Z,96.93
2022-10-04T14:50:47.054Z,97.50
2022-10-04T14:53:29.500Z,96.82
2022-10-04T14:56:37.094Z,98.33
2022-10-04T14:59:21.794Z,97.46
2022-10-04T15:02:20.641Z,98.05
2022-10-04T15:05:13.856Z,97.92
2022-10-04T15:07:47.048Z,96.29
2022-10-04T15:10:21.371Z,96.68
2022-10-04T15:13:11.086Z,96.04
2022-10-04T15:16:00.505Z,95.63
2022-10-04T15:18:37.856Z,93.99
2022-10-04T15:21:21.614Z,93.32
2022-10-04T15:23:56.108Z,93.17
2022-10-04T15:26:54.250Z,93.49
2022-10-04T15:29:29.522Z,92.26
2022-10-04T15:32:07.969Z,92.66
2022-10-04T15:34:46.985Z,92.63
2022-10-04T15:37:25.601Z,92.61
2022-10-04T15:40:14.903Z,92.39
2022-10-04T15:43:04.172Z,93.42
